Dayton, OH

10:45 PM EDT on September 01, 2014 (GMT -0400)
Springfield-Beckley Municipal | Change Station
CLOSE
Current Station
Airport
Location: Springfield,
Elevation: 1050 ft
Nearby Weather Stations

Elev 1050 ft 39.84 °N, 83.84 °W | Updated 49 minutes ago

Clear
Clear
75 °F
Feels Like 75 °F
N
8
Wind Variable Wind from SW

Today
High -- | Low -- °F
--% Chance of Precip.
Yesterday
High -- | Low -- °F
Precip. -- in
7:04 AM 8:07 PM
Waxing Crescent, 46% visible
Pressure 29.94 in
Visibility 9.0 miles
Clouds Clear
Dew Point 72 °F
Humidity 91%
Rainfall 0.01 in
Snow Depth Not available.
UV 0 out of 12
Pollen 10.00 out of 12
Ozone Good
PM2.5 Moderate
Flu Activity Not available.
METAR KSGH 020156Z AUTO 22007KT 9SM CLR 24/22 A2996 RMK AO2 T02380222 SLP137

More Conditions Fewer Conditions

Pressure 29.94 in
Visibility 9.0 miles
Clouds Clear
Dew Point 72 °F
Humidity 91%
Rainfall 0.01 in
Snow Depth Not available.
UV 0 out of 12
Pollen 10.00 out of 12
Ozone Good
PM2.5 Moderate
Flu Activity Not available.
METAR KSGH 020156Z AUTO 22007KT 9SM CLR 24/22 A2996 RMK AO2 T02380222 SLP137

More Conditions Fewer Conditions

10-Day Weather Forecast

Almanac

Astronomy

Sep. 01, 2014 Rise Set
Actual Time 7:04 AM EDT 8:07 PM EDT
Civil Twilight 6:37 AM EDT 8:35 PM EDT
Nautical Twilight 6:04 AM EDT 9:08 PM EDT
Astronomical Twilight 5:29 AM EDT 9:42 PM EDT
Moon 1:48 PM EDT (9/1) No Moon Set
Length of Visible Light 13h 58m
Length of Day
13h 03m
Tomorrow will be 2m 31s shorter.
Waxing Crescent, 46% of the Moon is Illuminated
Today
Waxing Crescent
Sep 2
First Quarter
Sep 8
Full
Sep 15
Last Quarter
Sep 24
New

Today's Extremes

State Highs State Lows

Community

WunderPhotos

Upload Photos

1,749,513 photos uploaded!

Nearby

Air Quality

  Air Quality AQ Index Pollutant
Yesterday Good
PM2.5
Yesterday Good
OZONE
Current Moderate
PM2.5
Current Good
OZONE
Monday Moderate
PM2.5
Monday Good
OZONE
Tuesday Moderate
PM2.5
Tuesday Good
OZONE

Snow Depth

Station Depth Elevation
No new snow has been reported.

Earthquake Activity

City Distance Mag. Time & Date
No recent earthquake activity has been reported nearby.
Minimum magnitude displayed is 2.5.

Coastal Water Temperatures

Place Temperature
No Stations Reporting

Nearby Weather Stations